createdAt,value
2022-08-07T00:00:04.101Z,99.99
2022-08-07T00:01:01.085Z,99.99
2022-08-07T00:02:37.008Z,99.99
2022-08-07T00:03:00.903Z,99.99
2022-08-07T00:04:03.523Z,99.99
2022-08-07T00:05:00.686Z,99.99
2022-08-07T00:06:00.803Z,99.99
2022-08-07T00:07:01.335Z,99.99
2022-08-07T00:08:02.150Z,99.99
2022-08-07T00:09:16.217Z,99.99
2022-08-07T00:10:25.571Z,99.99
2022-08-07T00:11:01.449Z,99.99
2022-08-07T00:12:02.503Z,99.99
2022-08-07T00:13:03.121Z,99.99
2022-08-07T00:14:03.384Z,99.99
2022-08-07T00:15:00.489Z,99.99
2022-08-07T00:16:00.776Z,99.99
2022-08-07T00:17:00.054Z,99.99
2022-08-07T00:18:00.364Z,99.99
2022-08-07T00:19:00.487Z,99.99
2022-08-07T00:20:03.484Z,99.99
2022-08-07T00:21:01.754Z,99.99
2022-08-07T00:22:02.130Z,99.99
2022-08-07T00:22:59.586Z,99.99
2022-08-07T00:23:59.724Z,99.99
2022-08-07T00:24:59.384Z,99.99
2022-08-07T00:26:06.955Z,99.99
2022-08-07T00:27:06.683Z,99.99
2022-08-07T00:27:59.410Z,99.99
2022-08-07T00:28:59.244Z,99.99
2022-08-07T00:29:59.066Z,99.99
2022-08-07T00:30:59.117Z,99.99
2022-08-07T00:31:59.034Z,99.99
2022-08-07T00:32:58.967Z,99.99
2022-08-07T00:33:58.927Z,99.99
2022-08-07T00:34:58.770Z,99.99
2022-08-07T00:35:58.699Z,99.99
2022-08-07T00:36:58.637Z,99.99
2022-08-07T00:37:58.633Z,99.99
2022-08-07T00:38:58.601Z,99.99
2022-08-07T00:39:58.493Z,99.99
2022-08-07T00:40:58.393Z,99.99
2022-08-07T00:42:02.601Z,99.99
2022-08-07T00:42:58.265Z,99.99
2022-08-07T00:43:59.485Z,99.99
2022-08-07T00:44:58.191Z,99.99
2022-08-07T00:45:58.123Z,99.99
2022-08-07T00:46:58.048Z,99.99
2022-08-07T00:48:07.731Z,99.99
2022-08-07T00:48:57.974Z,99.99
2022-08-07T00:50:19.128Z,99.99
2022-08-07T00:50:57.887Z,99.99
2022-08-07T00:51:58.815Z,99.99
2022-08-07T00:52:57.654Z,99.99
2022-08-07T00:53:57.632Z,99.99
2022-08-07T00:54:57.532Z,99.99
2022-08-07T00:56:02.893Z,99.99
2022-08-07T00:56:57.414Z,99.99
2022-08-07T00:57:57.337Z,99.99
2022-08-07T00:58:57.313Z,99.99
2022-08-07T00:59:57.215Z,99.99
2022-08-07T01:00:57.159Z,99.99
2022-08-07T01:01:57.975Z,99.99
2022-08-07T01:02:57.059Z,99.99
2022-08-07T01:04:00.046Z,99.99
2022-08-07T01:04:58.796Z,99.99
2022-08-07T01:05:56.864Z,99.99
2022-08-07T01:06:56.815Z,99.99
2022-08-07T01:07:56.723Z,99.99
2022-08-07T01:09:00.613Z,99.99
2022-08-07T01:10:06.619Z,99.99
2022-08-07T01:10:56.728Z,99.99
2022-08-07T01:12:28.077Z,99.99
2022-08-07T01:12:56.412Z,99.99
2022-08-07T01:13:56.476Z,99.99
2022-08-07T01:14:57.079Z,99.99
2022-08-07T01:16:05.747Z,99.99
2022-08-07T01:16:56.283Z,99.99
2022-08-07T01:17:56.118Z,99.99
2022-08-07T01:18:56.143Z,99.99
2022-08-07T01:19:56.113Z,99.99
2022-08-07T01:20:59.127Z,99.99
2022-08-07T01:21:55.851Z,99.99
2022-08-07T01:23:12.879Z,99.99
2022-08-07T01:23:55.857Z,99.99
2022-08-07T01:24:55.674Z,99.99
2022-08-07T01:25:56.424Z,99.99
2022-08-07T01:26:55.570Z,99.99
2022-08-07T01:27:55.479Z,99.99
2022-08-07T01:28:55.452Z,99.99
2022-08-07T01:29:55.363Z,99.99
2022-08-07T01:30:55.302Z,99.99
2022-08-07T01:31:55.238Z,99.99
2022-08-07T01:32:55.181Z,99.99
2022-08-07T01:33:57.596Z,99.99
2022-08-07T01:34:55.065Z,99.99
2022-08-07T01:36:05.939Z,99.99
2022-08-07T01:36:57.986Z,99.99
2022-08-07T01:37:54.883Z,99.99
2022-08-07T01:38:54.937Z,99.99
2022-08-07T01:39:54.957Z,99.99
2022-08-07T01:40:54.699Z,99.99
2022-08-07T01:42:07.220Z,99.99
2022-08-07T01:42:58.476Z,99.99
2022-08-07T01:43:54.622Z,99.99
2022-08-07T01:44:54.535Z,99.99
2022-08-07T01:45:54.726Z,99.99
2022-08-07T01:46:54.451Z,99.99
2022-08-07T01:48:19.413Z,99.99
2022-08-07T01:48:54.198Z,99.99
2022-08-07T01:49:54.838Z,99.99
2022-08-07T01:50:55.642Z,99.99
2022-08-07T01:52:03.653Z,99.99
2022-08-07T01:52:54.880Z,99.99
2022-08-07T01:54:12.620Z,99.99
2022-08-07T01:54:53.912Z,99.99
2022-08-07T01:55:53.762Z,99.99
2022-08-07T01:56:54.047Z,99.99
2022-08-07T01:58:06.136Z,99.99
2022-08-07T01:58:53.697Z,99.99
2022-08-07T01:59:53.628Z,99.99
2022-08-07T02:00:57.950Z,99.99
2022-08-07T02:02:02.836Z,99.99
2022-08-07T02:03:18.041Z,99.99
2022-08-07T02:03:53.467Z,99.99
2022-08-07T02:04:56.078Z,99.99
2022-08-07T02:06:01.020Z,99.99
2022-08-07T02:06:53.079Z,99.99
2022-08-07T02:07:53.005Z,99.99
2022-08-07T02:08:54.305Z,99.99
2022-08-07T02:09:58.530Z,99.99
2022-08-07T02:10:55.400Z,99.99
2022-08-07T02:12:03.038Z,99.99
2022-08-07T02:12:52.709Z,99.99
2022-08-07T02:13:57.230Z,99.99
2022-08-07T02:14:52.596Z,99.99
2022-08-07T02:15:53.114Z,99.99
2022-08-07T02:16:52.459Z,99.99
2022-08-07T02:17:52.404Z,99.99
2022-08-07T02:18:52.324Z,99.99
2022-08-07T02:20:04.473Z,99.99
2022-08-07T02:20:57.370Z,99.99
2022-08-07T02:21:56.357Z,99.99
2022-08-07T02:22:54.798Z,99.99
2022-08-07T02:23:52.125Z,99.99
2022-08-07T02:24:52.082Z,99.99
2022-08-07T02:26:31.973Z,99.99
2022-08-07T02:26:51.815Z,99.99
2022-08-07T02:27:53.090Z,99.99
2022-08-07T02:28:51.813Z,99.99
2022-08-07T02:29:54.499Z,99.99
2022-08-07T02:30:51.684Z,99.99
2022-08-07T02:31:51.641Z,99.99
2022-08-07T02:33:00.407Z,99.99
2022-08-07T02:34:01.729Z,99.99
2022-08-07T02:34:51.516Z,99.99
2022-08-07T02:36:29.455Z,99.99
2022-08-07T02:36:51.248Z,99.99
2022-08-07T02:37:51.235Z,99.99
2022-08-07T02:38:57.107Z,99.99
2022-08-07T02:40:02.008Z,99.99
2022-08-07T02:40:55.512Z,99.99
2022-08-07T02:41:54.909Z,99.99
2022-08-07T02:42:50.941Z,99.99
2022-08-07T02:43:50.778Z,99.99
2022-08-07T02:44:51.945Z,99.99
2022-08-07T02:46:00.722Z,99.99
2022-08-07T02:46:52.628Z,99.99
2022-08-07T02:47:50.664Z,99.99
2022-08-07T02:48:55.079Z,99.99
2022-08-07T02:49:57.752Z,99.99
2022-08-07T02:50:50.432Z,99.99
2022-08-07T02:51:52.320Z,99.99
2022-08-07T02:52:50.326Z,99.99
2022-08-07T02:53:50.140Z,99.99
2022-08-07T02:54:50.085Z,99.99
2022-08-07T02:56:03.220Z,99.99
2022-08-07T02:56:49.973Z,99.99
2022-08-07T02:57:49.932Z,99.99
2022-08-07T02:58:49.907Z,99.99
2022-08-07T02:59:54.937Z,99.99
2022-08-07T03:00:49.771Z,99.99
2022-08-07T03:01:52.306Z,99.99
2022-08-07T03:02:54.651Z,99.99
2022-08-07T03:03:50.928Z,99.99
2022-08-07T03:04:49.489Z,99.99
2022-08-07T03:05:49.398Z,99.99
2022-08-07T03:06:49.390Z,99.99
2022-08-07T03:08:05.153Z,99.99
2022-08-07T03:08:49.230Z,99.99
2022-08-07T03:09:52.144Z,99.99
2022-08-07T03:10:49.119Z,99.99
2022-08-07T03:11:52.368Z,99.99
2022-08-07T03:12:49.007Z,99.99
2022-08-07T03:13:49.910Z,99.99
2022-08-07T03:14:52.102Z,99.99
2022-08-07T03:15:56.337Z,99.99
2022-08-07T03:16:48.732Z,99.99
2022-08-07T03:17:53.775Z,99.99
2022-08-07T03:18:48.652Z,99.99
2022-08-07T03:19:55.152Z,99.99
2022-08-07T03:20:48.461Z,99.99
2022-08-07T03:21:50.786Z,99.99
2022-08-07T03:22:50.389Z,99.99
2022-08-07T03:24:18.410Z,99.99
2022-08-07T03:24:48.206Z,99.99
2022-08-07T03:25:58.329Z,99.99
2022-08-07T03:26:58.422Z,99.99
2022-08-07T03:27:59.745Z,99.99
2022-08-07T03:28:47.971Z,99.99
2022-08-07T03:29:49.589Z,99.99
2022-08-07T03:30:47.848Z,99.99
2022-08-07T03:31:50.050Z,99.99
2022-08-07T03:32:57.119Z,99.99
2022-08-07T03:33:47.718Z,99.99
2022-08-07T03:35:01.141Z,99.99
2022-08-07T03:35:50.443Z,99.99
2022-08-07T03:36:47.462Z,99.99
2022-08-07T03:37:54.993Z,99.99
2022-08-07T03:38:47.392Z,99.99
2022-08-07T03:39:59.564Z,99.99
2022-08-07T03:40:47.313Z,99.99
2022-08-07T03:41:47.769Z,99.99
2022-08-07T03:42:47.104Z,99.99
2022-08-07T03:43:56.783Z,99.99
2022-08-07T03:44:53.146Z,99.99
2022-08-07T03:45:47.808Z,99.99
2022-08-07T03:47:13.481Z,99.99
2022-08-07T03:47:51.303Z,99.99
2022-08-07T03:49:02.879Z,99.99
2022-08-07T03:49:52.149Z,99.99
2022-08-07T03:50:51.987Z,99.99
2022-08-07T03:51:47.272Z,99.99
2022-08-07T03:52:46.472Z,99.99
2022-08-07T03:54:33.034Z,99.99
2022-08-07T03:54:54.216Z,99.99
2022-08-07T03:55:58.348Z,99.99
2022-08-07T03:57:03.678Z,99.99
2022-08-07T03:58:35.419Z,99.99
2022-08-07T03:59:07.427Z,99.99
2022-08-07T03:59:46.497Z,99.99
2022-08-07T04:00:46.600Z,99.99
2022-08-07T04:01:46.176Z,99.99
2022-08-07T04:02:47.516Z,99.99
2022-08-07T04:03:53.522Z,99.99
2022-08-07T04:04:45.725Z,99.99
2022-08-07T04:05:45.798Z,99.99
2022-08-07T04:06:45.595Z,99.99
2022-08-07T04:07:45.599Z,99.99
2022-08-07T04:08:45.447Z,99.99
2022-08-07T04:09:50.295Z,99.99
2022-08-07T04:10:53.578Z,99.99
2022-08-07T04:12:25.245Z,99.99
2022-08-07T04:12:45.226Z,99.99
2022-08-07T04:14:10.900Z,99.99
2022-08-07T04:14:47.683Z,99.99
2022-08-07T04:15:45.604Z,99.99
2022-08-07T04:16:58.684Z,99.99
2022-08-07T04:18:58.262Z,99.99
2022-08-07T04:18:59.556Z,99.99
2022-08-07T04:19:52.226Z,99.99
2022-08-07T04:20:54.550Z,99.99
2022-08-07T04:21:47.990Z,99.99
2022-08-07T04:22:53.757Z,99.99
2022-08-07T04:24:06.044Z,99.99
2022-08-07T04:24:44.447Z,99.99
2022-08-07T04:25:44.400Z,99.99
2022-08-07T04:26:44.355Z,99.99
2022-08-07T04:27:46.252Z,99.99
2022-08-07T04:28:44.229Z,99.99
2022-08-07T04:29:58.460Z,99.99
2022-08-07T04:30:56.891Z,99.99
2022-08-07T04:32:03.302Z,99.99
2022-08-07T04:32:44.866Z,99.99
2022-08-07T04:33:43.898Z,99.99
2022-08-07T04:34:43.887Z,99.99
2022-08-07T04:35:43.893Z,99.99
2022-08-07T04:36:43.789Z,99.99
2022-08-07T04:38:02.893Z,99.99
2022-08-07T04:38:43.593Z,99.99
2022-08-07T04:39:47.869Z,99.99
2022-08-07T04:40:52.159Z,99.99
2022-08-07T04:41:43.395Z,99.99
2022-08-07T04:42:43.688Z,99.99
2022-08-07T04:44:11.711Z,99.99
2022-08-07T04:44:54.678Z,99.99
2022-08-07T04:46:00.447Z,99.99
2022-08-07T04:47:04.135Z,99.99
2022-08-07T04:47:58.586Z,99.99
2022-08-07T04:48:44.761Z,99.99
2022-08-07T04:49:57.329Z,99.99
2022-08-07T04:50:42.847Z,99.99
2022-08-07T04:51:42.763Z,99.99
2022-08-07T04:52:51.220Z,99.99
2022-08-07T04:54:05.721Z,99.99
2022-08-07T04:54:42.613Z,99.99
2022-08-07T04:58:15.425Z,99.99
2022-08-07T04:58:16.701Z,99.99
2022-08-07T04:58:24.504Z,99.99
2022-08-07T04:59:16.963Z,99.99
2022-08-07T05:00:10.784Z,99.99
2022-08-07T05:00:42.271Z,99.99
2022-08-07T05:01:42.199Z,99.99
2022-08-07T05:02:43.458Z,99.99
2022-08-07T05:04:07.435Z,99.99
2022-08-07T05:04:47.089Z,99.99
2022-08-07T05:05:53.396Z,99.99
2022-08-07T05:06:43.700Z,99.99
2022-08-07T05:07:44.170Z,99.99
2022-08-07T05:08:59.650Z,99.99
2022-08-07T05:09:45.518Z,99.99
2022-08-07T05:10:41.624Z,99.99
2022-08-07T05:11:58.269Z,99.99
2022-08-07T05:12:52.806Z,99.99
2022-08-07T05:14:53.754Z,99.99
2022-08-07T05:14:54.506Z,99.99
2022-08-07T05:15:41.269Z,99.99
2022-08-07T05:16:44.121Z,99.99
2022-08-07T05:17:52.291Z,99.99
2022-08-07T05:18:41.093Z,99.99
2022-08-07T05:19:44.845Z,99.99
2022-08-07T05:20:40.983Z,99.99
2022-08-07T05:21:58.935Z,99.99
2022-08-07T05:22:40.887Z,99.99
2022-08-07T05:23:40.811Z,99.99
2022-08-07T05:24:40.853Z,99.99
2022-08-07T05:26:10.662Z,99.99
2022-08-07T05:26:40.625Z,99.99
2022-08-07T05:28:16.273Z,99.99
2022-08-07T05:28:40.770Z,99.99
2022-08-07T05:29:51.117Z,99.99
2022-08-07T05:30:40.344Z,99.99
2022-08-07T05:31:40.271Z,99.99
2022-08-07T05:32:40.254Z,99.99
2022-08-07T05:33:40.193Z,99.99
2022-08-07T05:34:40.108Z,99.99
2022-08-07T05:35:41.782Z,99.99
2022-08-07T05:36:40.035Z,99.99
2022-08-07T05:37:42.388Z,99.99
2022-08-07T05:39:00.301Z,99.99
2022-08-07T05:40:17.085Z,99.99
2022-08-07T05:40:50.599Z,98.10
2022-08-07T05:42:02.350Z,96.56
2022-08-07T05:42:39.635Z,93.08
2022-08-07T05:44:08.710Z,91.30
2022-08-07T05:44:41.595Z,87.91
2022-08-07T05:45:47.314Z,87.32
2022-08-07T05:46:39.430Z,84.32
2022-08-07T05:48:01.689Z,83.84
2022-08-07T05:48:58.056Z,83.45
2022-08-07T05:49:40.924Z,83.03
2022-08-07T05:50:39.526Z,84.05
2022-08-07T05:51:40.100Z,84.10
2022-08-07T05:52:39.063Z,85.30
2022-08-07T05:54:12.342Z,84.39
2022-08-07T05:54:44.650Z,84.09
2022-08-07T05:56:03.350Z,83.55
2022-08-07T05:56:38.806Z,83.40
2022-08-07T05:57:42.217Z,82.08
2022-08-07T05:58:39.245Z,79.66
2022-08-07T05:59:55.578Z,80.01
2022-08-07T06:00:38.566Z,81.62
2022-08-07T06:01:38.644Z,82.29
2022-08-07T06:02:38.433Z,82.72
2022-08-07T06:03:53.602Z,81.93
2022-08-07T06:04:38.336Z,79.32
2022-08-07T06:05:38.261Z,79.41
2022-08-07T06:06:38.338Z,78.77
2022-08-07T06:08:13.017Z,78.23
2022-08-07T06:08:42.394Z,78.02
2022-08-07T06:10:04.105Z,75.59
2022-08-07T06:10:37.958Z,75.53
2022-08-07T06:11:37.891Z,73.97
2022-08-07T06:12:37.830Z,73.74
2022-08-07T06:14:11.700Z,73.49
2022-08-07T06:14:37.740Z,73.30
2022-08-07T06:15:42.302Z,73.46
2022-08-07T06:16:37.639Z,72.17
2022-08-07T06:17:41.170Z,71.39
2022-08-07T06:18:37.504Z,70.80
2022-08-07T06:19:52.129Z,73.47
2022-08-07T06:20:50.790Z,76.93
2022-08-07T06:22:14.979Z,75.13
2022-08-07T06:22:40.318Z,74.41
2022-08-07T06:24:37.217Z,74.49
2022-08-07T06:24:52.954Z,74.13
2022-08-07T06:25:37.065Z,73.10
2022-08-07T06:26:37.061Z,71.74
2022-08-07T06:27:59.990Z,71.94
2022-08-07T06:28:36.969Z,71.97
2022-08-07T06:29:39.027Z,72.07
2022-08-07T06:30:41.374Z,70.93
2022-08-07T06:31:46.984Z,73.25
2022-08-07T06:32:36.687Z,73.38
2022-08-07T06:33:36.613Z,71.77
2022-08-07T06:34:36.595Z,71.84
2022-08-07T06:35:47.998Z,71.88
2022-08-07T06:36:36.749Z,71.62
2022-08-07T06:37:44.017Z,71.20
2022-08-07T06:38:36.430Z,69.48
2022-08-07T06:40:15.988Z,67.67
2022-08-07T06:40:36.395Z,66.11
2022-08-07T06:42:01.116Z,67.47
2022-08-07T06:42:36.656Z,68.28
2022-08-07T06:43:39.577Z,70.54
2022-08-07T06:44:39.812Z,71.64
2022-08-07T06:45:37.748Z,70.42
2022-08-07T06:46:35.957Z,68.70
2022-08-07T06:47:48.083Z,69.24
2022-08-07T06:50:13.059Z,76.20
2022-08-07T06:51:09.502Z,75.60
2022-08-07T06:52:10.283Z,73.31
2022-08-07T06:53:49.163Z,73.09
2022-08-07T06:55:28.516Z,71.96
2022-08-07T06:55:32.012Z,71.28
2022-08-07T06:56:14.796Z,72.53
2022-08-07T06:57:07.477Z,74.22
2022-08-07T06:58:10.230Z,73.84
2022-08-07T07:00:13.374Z,71.91
2022-08-07T07:00:14.593Z,68.12
2022-08-07T07:01:07.416Z,68.51
2022-08-07T07:02:07.232Z,68.48
2022-08-07T07:03:10.860Z,66.93
2022-08-07T07:04:28.528Z,64.85
2022-08-07T07:05:07.030Z,67.02
2022-08-07T07:06:11.276Z,67.63
2022-08-07T07:07:18.809Z,66.05
2022-08-07T07:08:10.081Z,67.54
2022-08-07T07:09:06.835Z,67.60
2022-08-07T07:10:06.733Z,66.69
2022-08-07T07:11:13.885Z,66.40
2022-08-07T07:12:09.732Z,68.15
2022-08-07T07:13:06.592Z,68.21
2022-08-07T07:14:08.463Z,69.76
2022-08-07T07:15:08.634Z,70.60
2022-08-07T07:16:06.430Z,70.60
2022-08-07T07:17:06.340Z,70.09
2022-08-07T07:18:06.368Z,68.12
2022-08-07T07:19:19.023Z,67.60
2022-08-07T07:20:06.175Z,65.85
2022-08-07T07:21:06.143Z,65.53
2022-08-07T07:22:34.416Z,67.79
2022-08-07T07:24:09.264Z,70.20
2022-08-07T07:24:11.390Z,70.56
2022-08-07T07:25:14.198Z,70.04
2022-08-07T07:26:31.561Z,71.22
2022-08-07T07:27:05.846Z,69.31
2022-08-07T07:28:29.505Z,67.76
2022-08-07T07:29:39.250Z,66.99
2022-08-07T07:30:09.119Z,66.37
2022-08-07T07:31:05.589Z,64.82
2022-08-07T07:32:05.499Z,67.02
2022-08-07T07:33:05.486Z,65.56
2022-08-07T07:34:05.432Z,64.42
2022-08-07T07:35:05.337Z,64.45
2022-08-07T07:36:12.834Z,62.08
2022-08-07T07:37:05.556Z,61.43
2022-08-07T07:38:05.992Z,61.88
2022-08-07T07:39:05.224Z,60.06
2022-08-07T07:40:10.408Z,59.30
2022-08-07T07:41:05.013Z,58.09
2022-08-07T07:42:13.375Z,56.05
2022-08-07T07:43:11.839Z,56.92
2022-08-07T07:44:17.904Z,60.33
2022-08-07T07:45:04.792Z,60.19
2022-08-07T07:46:37.922Z,58.86
2022-08-07T07:47:16.055Z,58.81
2022-08-07T07:48:04.619Z,57.70
2022-08-07T07:50:31.564Z,56.16
2022-08-07T07:50:32.840Z,55.32
2022-08-07T07:51:07.997Z,55.69
2022-08-07T07:52:04.434Z,56.57
2022-08-07T07:53:04.359Z,57.15
2022-08-07T07:54:04.292Z,56.43
2022-08-07T07:55:04.253Z,56.46
2022-08-07T07:56:04.178Z,56.09
2022-08-07T07:57:04.120Z,55.24
2022-08-07T07:58:04.086Z,54.13
2022-08-07T07:59:04.072Z,55.22
2022-08-07T08:00:03.967Z,56.13
2022-08-07T08:02:02.806Z,55.77
2022-08-07T08:02:05.268Z,55.33
2022-08-07T08:03:05.431Z,54.87
2022-08-07T08:04:09.282Z,52.91
2022-08-07T08:05:03.698Z,52.62
2022-08-07T08:06:03.653Z,54.21
2022-08-07T08:07:07.640Z,53.36
2022-08-07T08:08:03.611Z,52.37
2022-08-07T08:09:03.513Z,53.06
2022-08-07T08:10:04.898Z,52.29
2022-08-07T08:11:03.738Z,57.01
2022-08-07T08:12:04.994Z,58.63
2022-08-07T08:13:03.257Z,57.85
2022-08-07T08:14:03.244Z,57.59
2022-08-07T08:15:06.725Z,57.10
2022-08-07T08:16:03.104Z,57.26
2022-08-07T08:17:55.362Z,58.15
2022-08-07T08:18:17.421Z,60.44
2022-08-07T08:19:17.706Z,61.18
2022-08-07T08:20:19.750Z,62.71
2022-08-07T08:21:02.854Z,63.19
2022-08-07T08:22:03.848Z,60.75
2022-08-07T08:23:02.714Z,59.54
2022-08-07T08:24:02.682Z,57.62
2022-08-07T08:25:18.657Z,56.40
2022-08-07T08:26:07.000Z,55.20
2022-08-07T08:27:02.524Z,55.96
2022-08-07T08:28:03.939Z,55.69
2022-08-07T08:29:02.441Z,56.52
2022-08-07T08:30:02.987Z,56.05
2022-08-07T08:31:02.310Z,56.46
2022-08-07T08:32:18.031Z,58.67
2022-08-07T08:33:02.191Z,59.70
2022-08-07T08:34:02.161Z,59.25
2022-08-07T08:35:02.113Z,57.38
2022-08-07T08:36:02.067Z,56.65
2022-08-07T08:37:02.027Z,55.28
2022-08-07T08:38:03.422Z,53.55
2022-08-07T08:39:02.763Z,54.89
2022-08-07T08:40:01.958Z,54.94
2022-08-07T08:41:02.764Z,53.89
2022-08-07T08:42:01.715Z,53.50
2022-08-07T08:43:01.667Z,53.33
2022-08-07T08:44:01.630Z,52.25
2022-08-07T08:45:01.554Z,52.86
2022-08-07T08:46:01.506Z,53.96
2022-08-07T08:47:01.499Z,53.82
2022-08-07T08:48:01.435Z,53.26
2022-08-07T08:49:01.351Z,53.09
2022-08-07T08:50:04.765Z,51.17
2022-08-07T08:51:03.478Z,51.81
2022-08-07T08:52:14.041Z,51.05
2022-08-07T08:53:01.167Z,50.78
2022-08-07T08:54:01.079Z,53.81
2022-08-07T08:55:04.685Z,54.10
2022-08-07T08:56:01.047Z,55.20
2022-08-07T08:57:00.925Z,55.57
2022-08-07T08:58:00.882Z,54.55
2022-08-07T08:59:06.551Z,53.23
2022-08-07T09:00:00.781Z,52.01
2022-08-07T09:01:00.936Z,50.78
2022-08-07T09:02:00.777Z,49.82
2022-08-07T09:03:00.835Z,49.85
2022-08-07T09:04:00.603Z,49.21
2022-08-07T09:05:00.540Z,48.05
2022-08-07T09:06:00.500Z,47.98
2022-08-07T09:07:00.418Z,49.08
2022-08-07T09:08:00.347Z,49.63
2022-08-07T09:09:00.352Z,51.54
2022-08-07T09:10:03.342Z,52.15
2022-08-07T09:11:00.213Z,53.10
2022-08-07T09:12:20.129Z,53.25
2022-08-07T09:13:00.161Z,53.20
2022-08-07T09:14:00.064Z,52.47
2022-08-07T09:14:59.989Z,51.54
2022-08-07T09:16:24.061Z,49.85
2022-08-07T09:16:59.915Z,48.99
2022-08-07T09:18:05.979Z,48.20
2022-08-07T09:18:59.805Z,48.14
2022-08-07T09:19:59.720Z,47.16
2022-08-07T09:21:00.908Z,46.59
2022-08-07T09:24:29.400Z,46.99
2022-08-07T09:24:31.969Z,45.93
2022-08-07T09:24:32.816Z,45.96
2022-08-07T09:25:08.195Z,45.97
2022-08-07T09:25:59.455Z,47.45
2022-08-07T09:27:04.605Z,48.85
2022-08-07T09:27:59.972Z,49.07
2022-08-07T09:30:01.889Z,49.31
2022-08-07T09:30:05.651Z,48.03
2022-08-07T09:30:59.181Z,46.66
2022-08-07T09:31:59.186Z,49.07
2022-08-07T09:32:59.061Z,50.88
2022-08-07T09:33:59.032Z,49.65
2022-08-07T09:34:59.000Z,49.14
2022-08-07T09:36:02.927Z,49.07
2022-08-07T09:36:58.879Z,48.79
2022-08-07T09:37:58.818Z,49.70
2022-08-07T09:38:58.906Z,48.99
2022-08-07T09:39:58.706Z,49.26
2022-08-07T09:40:58.689Z,48.68
2022-08-07T09:42:05.805Z,51.86
2022-08-07T09:42:58.663Z,53.66
2022-08-07T09:44:05.829Z,54.87
2022-08-07T09:47:50.340Z,56.99
2022-08-07T09:47:55.513Z,57.45
2022-08-07T09:47:55.665Z,57.37
2022-08-07T09:48:02.953Z,58.49
2022-08-07T09:50:01.257Z,58.46
2022-08-07T09:50:01.878Z,58.75
2022-08-07T09:50:59.490Z,58.92
2022-08-07T09:52:15.720Z,59.41
2022-08-07T09:52:58.056Z,59.79
2022-08-07T09:54:02.356Z,59.79
2022-08-07T09:54:57.933Z,59.56
2022-08-07T09:56:03.533Z,58.94
2022-08-07T09:56:57.827Z,57.34
2022-08-07T09:57:57.796Z,56.51
2022-08-07T09:58:57.756Z,55.10
2022-08-07T10:00:00.780Z,53.69
2022-08-07T10:00:57.699Z,52.34
2022-08-07T10:01:57.555Z,52.64
2022-08-07T10:02:57.526Z,52.20
2022-08-07T10:04:04.705Z,51.00
2022-08-07T10:04:57.483Z,52.27
2022-08-07T10:06:01.236Z,51.32
2022-08-07T10:06:57.633Z,51.68
2022-08-07T10:07:57.478Z,51.78
2022-08-07T10:08:57.220Z,51.98
2022-08-07T10:10:00.783Z,51.20
2022-08-07T10:11:59.437Z,51.78
2022-08-07T10:11:59.771Z,51.20
2022-08-07T10:12:57.020Z,51.00
2022-08-07T10:14:01.660Z,50.83
2022-08-07T10:14:56.874Z,50.93
2022-08-07T10:15:56.813Z,50.63
2022-08-07T10:16:59.591Z,50.93
2022-08-07T10:18:00.897Z,51.98
2022-08-07T10:18:56.667Z,52.98
2022-08-07T10:19:56.652Z,52.54
2022-08-07T10:20:56.603Z,52.00
2022-08-07T10:22:15.880Z,49.87
2022-08-07T10:22:56.501Z,49.60
2022-08-07T10:24:06.443Z,49.16
2022-08-07T10:24:57.448Z,49.31
2022-08-07T10:25:56.287Z,51.51
2022-08-07T10:26:56.304Z,50.85
2022-08-07T10:27:56.214Z,50.85
2022-08-07T10:28:56.205Z,51.49
2022-08-07T10:29:56.101Z,49.14
2022-08-07T10:30:56.033Z,49.04
2022-08-07T10:31:56.025Z,48.77
2022-08-07T10:32:59.646Z,50.68
2022-08-07T10:34:05.625Z,51.37
2022-08-07T10:34:55.859Z,51.39
2022-08-07T10:36:05.548Z,50.93
2022-08-07T10:36:55.757Z,49.65
2022-08-07T10:38:21.644Z,50.88
2022-08-07T10:38:55.634Z,49.97
2022-08-07T10:40:03.451Z,50.51
2022-08-07T10:40:55.531Z,52.15
2022-08-07T10:42:00.414Z,52.08
2022-08-07T10:42:55.450Z,52.80
2022-08-07T10:43:55.400Z,54.11
2022-08-07T10:44:55.780Z,55.55
2022-08-07T10:45:58.339Z,55.50
2022-08-07T10:46:55.205Z,56.54
2022-08-07T10:47:58.701Z,57.22
2022-08-07T10:48:55.088Z,57.20
2022-08-07T10:49:55.052Z,57.97
2022-08-07T10:50:55.005Z,58.53
2022-08-07T10:52:02.071Z,59.31
2022-08-07T10:52:54.894Z,59.27
2022-08-07T10:53:58.496Z,58.03
2022-08-07T10:55:01.684Z,56.62
2022-08-07T10:55:54.736Z,56.22
2022-08-07T10:56:54.662Z,53.61
2022-08-07T10:57:56.314Z,53.64
2022-08-07T10:58:59.681Z,52.98
2022-08-07T10:59:54.538Z,53.10
2022-08-07T11:00:56.131Z,52.25
2022-08-07T11:02:04.668Z,50.98
2022-08-07T11:02:54.356Z,51.22
2022-08-07T11:04:05.422Z,51.44
2022-08-07T11:04:54.255Z,50.49
2022-08-07T11:05:54.701Z,49.63
2022-08-07T11:06:54.135Z,49.85
2022-08-07T11:07:59.508Z,49.16
2022-08-07T11:08:54.076Z,48.57
2022-08-07T11:10:07.861Z,48.86
2022-08-07T11:10:59.456Z,48.52
2022-08-07T11:11:53.854Z,49.60
2022-08-07T11:13:01.572Z,49.02
2022-08-07T11:14:45.970Z,49.04
2022-08-07T11:15:00.445Z,48.85
2022-08-07T11:15:54.688Z,49.02
2022-08-07T11:16:55.685Z,49.29
2022-08-07T11:17:54.133Z,49.97
2022-08-07T11:18:53.544Z,49.38
2022-08-07T11:19:53.447Z,48.80
2022-08-07T11:20:53.439Z,49.21
2022-08-07T11:21:53.389Z,48.92
2022-08-07T11:22:53.305Z,48.63
2022-08-07T11:23:53.265Z,49.09
2022-08-07T11:24:53.180Z,48.85
2022-08-07T11:25:53.180Z,49.43
2022-08-07T11:26:53.079Z,49.65
2022-08-07T11:28:03.085Z,49.33
2022-08-07T11:28:53.338Z,49.85
2022-08-07T11:30:10.002Z,50.56
2022-08-07T11:30:52.931Z,52.34
2022-08-07T11:31:52.830Z,53.36
2022-08-07T11:32:52.898Z,54.96
2022-08-07T11:33:58.428Z,55.66
2022-08-07T11:34:52.679Z,56.05
2022-08-07T11:35:59.428Z,56.22
2022-08-07T11:36:52.565Z,56.90
2022-08-07T11:37:57.859Z,57.07
2022-08-07T11:38:52.543Z,57.56
2022-08-07T11:39:59.741Z,57.07
2022-08-07T11:40:52.351Z,56.85
2022-08-07T11:42:02.327Z,57.92
2022-08-07T11:42:52.264Z,57.72
2022-08-07T11:44:11.103Z,57.04
2022-08-07T11:44:57.705Z,57.04
2022-08-07T11:45:53.255Z,56.56
2022-08-07T11:46:52.013Z,58.11
2022-08-07T11:47:53.593Z,58.59
2022-08-07T11:49:50.657Z,58.04
2022-08-07T11:50:31.010Z,58.40
2022-08-07T11:50:58.154Z,58.50
2022-08-07T11:51:51.786Z,58.40
2022-08-07T11:52:51.839Z,58.86
2022-08-07T11:54:01.215Z,59.74
2022-08-07T11:54:54.852Z,60.48
2022-08-07T11:56:15.658Z,60.28
2022-08-07T11:56:53.014Z,59.64
2022-08-07T11:57:59.533Z,59.44
2022-08-07T11:58:51.412Z,59.25
2022-08-07T12:00:10.212Z,59.74
2022-08-07T12:01:01.652Z,60.22
2022-08-07T12:02:00.035Z,59.05
2022-08-07T12:02:52.398Z,60.12
2022-08-07T12:03:51.183Z,60.97
2022-08-07T12:04:51.030Z,60.31
2022-08-07T12:05:50.975Z,60.02
2022-08-07T12:06:57.266Z,60.12
2022-08-07T12:07:53.671Z,59.61
2022-08-07T12:08:52.416Z,60.35
2022-08-07T12:09:50.760Z,59.87
2022-08-07T12:11:08.040Z,60.84
2022-08-07T12:12:10.173Z,60.77
2022-08-07T12:12:50.604Z,60.87
2022-08-07T12:13:50.523Z,59.64
2022-08-07T12:14:55.613Z,59.74
2022-08-07T12:16:06.179Z,59.25
2022-08-07T12:16:50.343Z,60.12
2022-08-07T12:17:58.962Z,59.70
2022-08-07T12:18:50.631Z,59.70
2022-08-07T12:20:02.641Z,59.74
2022-08-07T12:20:50.123Z,59.44
2022-08-07T12:22:36.349Z,59.54
2022-08-07T12:22:58.433Z,59.83
2022-08-07T12:24:05.357Z,59.76
2022-08-07T12:24:52.493Z,59.38
2022-08-07T12:26:03.499Z,59.76
2022-08-07T12:26:49.815Z,58.59
2022-08-07T12:28:05.836Z,58.64
2022-08-07T12:28:53.100Z,60.02
2022-08-07T12:29:51.748Z,59.31
2022-08-07T12:30:53.327Z,59.58
2022-08-07T12:32:04.025Z,60.09
2022-08-07T12:33:55.996Z,59.00
2022-08-07T12:34:56.187Z,59.58
2022-08-07T12:35:58.059Z,60.71
2022-08-07T12:36:53.730Z,59.94
2022-08-07T12:38:10.383Z,59.78
2022-08-07T12:38:57.420Z,61.01
2022-08-07T12:39:53.646Z,63.24
2022-08-07T12:40:53.554Z,62.37
2022-08-07T12:41:53.450Z,62.49
2022-08-07T12:42:55.190Z,62.49
2022-08-07T12:44:03.403Z,61.69
2022-08-07T12:44:53.338Z,62.49
2022-08-07T12:45:53.248Z,61.11
2022-08-07T12:46:53.246Z,62.66
2022-08-07T12:47:53.163Z,62.56
2022-08-07T12:48:55.109Z,61.98
2022-08-07T12:49:54.371Z,63.24
2022-08-07T12:50:52.962Z,62.49
2022-08-07T12:52:12.123Z,62.10
2022-08-07T12:52:53.072Z,61.82
2022-08-07T12:54:03.021Z,62.59